sensor_id;sensor_type;location;lat;lon;timestamp;temperature;humidity
16781;DHT22;8507;50.056;8.248;2023-08-31T00:01:11;15.30;99.90
16781;DHT22;8507;50.056;8.248;2023-08-31T00:03:36;15.30;99.90
16781;DHT22;8507;50.056;8.248;2023-08-31T00:06:02;15.20;99.90
16781;DHT22;8507;50.056;8.248;2023-08-31T00:08:33;15.20;99.90
16781;DHT22;8507;50.056;8.248;2023-08-31T00:11:00;15.20;99.90
16781;DHT22;8507;50.056;8.248;2023-08-31T00:13:27;15.10;99.90
16781;DHT22;8507;50.056;8.248;2023-08-31T00:15:56;15.10;99.90
16781;DHT22;8507;50.056;8.248;2023-08-31T00:18:28;15.10;99.90
16781;DHT22;8507;50.056;8.248;2023-08-31T00:20:53;15.10;99.90
16781;DHT22;8507;50.056;8.248;2023-08-31T00:23:20;15.00;99.90
16781;DHT22;8507;50.056;8.248;2023-08-31T00:25:47;14.90;99.90
16781;DHT22;8507;50.056;8.248;2023-08-31T00:28:16;14.80;99.90
16781;DHT22;8507;50.056;8.248;2023-08-31T00:30:44;14.70;99.90
16781;DHT22;8507;50.056;8.248;2023-08-31T00:33:13;14.60;99.90
16781;DHT22;8507;50.056;8.248;2023-08-31T00:35:38;14.50;99.90
16781;DHT22;8507;50.056;8.248;2023-08-31T00:38:11;14.50;99.90
16781;DHT22;8507;50.056;8.248;2023-08-31T00:40:41;14.50;99.90
16781;DHT22;8507;50.056;8.248;2023-08-31T00:43:09;14.50;99.90
16781;DHT22;8507;50.056;8.248;2023-08-31T00:45:35;14.50;99.90
16781;DHT22;8507;50.056;8.248;2023-08-31T00:48:01;14.50;99.90
16781;DHT22;8507;50.056;8.248;2023-08-31T00:50:26;14.40;99.90
16781;DHT22;8507;50.056;8.248;2023-08-31T00:52:52;14.30;99.90
16781;DHT22;8507;50.056;8.248;2023-08-31T00:55:18;14.30;99.90
16781;DHT22;8507;50.056;8.248;2023-08-31T00:57:44;14.20;99.90
16781;DHT22;8507;50.056;8.248;2023-08-31T01:00:10;14.20;99.90
16781;DHT22;8507;50.056;8.248;2023-08-31T01:03:02;14.10;99.90
16781;DHT22;8507;50.056;8.248;2023-08-31T01:08:34;14.10;99.90
16781;DHT22;8507;50.056;8.248;2023-08-31T01:11:24;14.10;99.90
16781;DHT22;8507;50.056;8.248;2023-08-31T01:14:11;14.00;99.90
16781;DHT22;8507;50.056;8.248;2023-08-31T01:16:42;14.10;99.90
16781;DHT22;8507;50.056;8.248;2023-08-31T01:19:23;14.10;99.90
16781;DHT22;8507;50.056;8.248;2023-08-31T01:21:55;14.20;99.90
16781;DHT22;8507;50.056;8.248;2023-08-31T01:24:23;14.30;99.90
16781;DHT22;8507;50.056;8.248;2023-08-31T01:26:49;14.50;99.90
16781;DHT22;8507;50.056;8.248;2023-08-31T01:29:15;14.50;99.90
16781;DHT22;8507;50.056;8.248;2023-08-31T01:31:44;14.60;99.90
16781;DHT22;8507;50.056;8.248;2023-08-31T01:34:10;14.60;99.90
16781;DHT22;8507;50.056;8.248;2023-08-31T01:36:40;14.60;99.90
16781;DHT22;8507;50.056;8.248;2023-08-31T01:39:26;14.60;99.90
16781;DHT22;8507;50.056;8.248;2023-08-31T01:42:02;14.50;99.90
16781;DHT22;8507;50.056;8.248;2023-08-31T01:44:31;14.50;99.90
16781;DHT22;8507;50.056;8.248;2023-08-31T01:47:03;14.50;99.90
16781;DHT22;8507;50.056;8.248;2023-08-31T01:49:38;14.50;99.90
16781;DHT22;8507;50.056;8.248;2023-08-31T01:52:04;14.60;99.90
16781;DHT22;8507;50.056;8.248;2023-08-31T01:54:30;14.60;99.90
16781;DHT22;8507;50.056;8.248;2023-08-31T01:56:55;14.60;99.90
16781;DHT22;8507;50.056;8.248;2023-08-31T01:59:21;14.60;99.90
16781;DHT22;8507;50.056;8.248;2023-08-31T02:01:46;14.70;99.90
16781;DHT22;8507;50.056;8.248;2023-08-31T02:04:12;14.70;99.90
16781;DHT22;8507;50.056;8.248;2023-08-31T02:06:38;14.70;99.90
16781;DHT22;8507;50.056;8.248;2023-08-31T02:09:03;14.60;99.90
16781;DHT22;8507;50.056;8.248;2023-08-31T02:11:29;14.40;99.90
16781;DHT22;8507;50.056;8.248;2023-08-31T02:13:57;14.40;99.90
16781;DHT22;8507;50.056;8.248;2023-08-31T02:16:23;14.40;99.90
16781;DHT22;8507;50.056;8.248;2023-08-31T02:18:48;14.50;99.90
16781;DHT22;8507;50.056;8.248;2023-08-31T02:21:14;14.60;99.90
16781;DHT22;8507;50.056;8.248;2023-08-31T02:23:39;14.70;99.90
16781;DHT22;8507;50.056;8.248;2023-08-31T02:26:05;14.70;99.90
16781;DHT22;8507;50.056;8.248;2023-08-31T02:28:30;14.70;99.90
16781;DHT22;8507;50.056;8.248;2023-08-31T02:31:00;14.70;99.90
16781;DHT22;8507;50.056;8.248;2023-08-31T02:33:26;14.70;99.90
16781;DHT22;8507;50.056;8.248;2023-08-31T02:35:53;14.70;99.90
16781;DHT22;8507;50.056;8.248;2023-08-31T02:38:18;14.70;99.90
16781;DHT22;8507;50.056;8.248;2023-08-31T02:40:46;14.60;99.90
16781;DHT22;8507;50.056;8.248;2023-08-31T02:43:11;14.50;99.90
16781;DHT22;8507;50.056;8.248;2023-08-31T02:45:37;14.50;99.90
16781;DHT22;8507;50.056;8.248;2023-08-31T02:48:03;14.40;99.90
16781;DHT22;8507;50.056;8.248;2023-08-31T02:50:29;14.40;99.90
16781;DHT22;8507;50.056;8.248;2023-08-31T02:52:54;14.30;99.90
16781;DHT22;8507;50.056;8.248;2023-08-31T02:55:20;14.20;99.90
16781;DHT22;8507;50.056;8.248;2023-08-31T02:57:46;14.20;99.90
16781;DHT22;8507;50.056;8.248;2023-08-31T03:00:12;14.10;99.90
16781;DHT22;8507;50.056;8.248;2023-08-31T03:02:39;14.20;99.90
16781;DHT22;8507;50.056;8.248;2023-08-31T03:05:04;14.20;99.90
16781;DHT22;8507;50.056;8.248;2023-08-31T03:07:30;14.20;99.90
16781;DHT22;8507;50.056;8.248;2023-08-31T03:09:55;14.30;99.90
16781;DHT22;8507;50.056;8.248;2023-08-31T03:12:21;14.30;99.90
16781;DHT22;8507;50.056;8.248;2023-08-31T03:14:47;14.30;99.90
16781;DHT22;8507;50.056;8.248;2023-08-31T03:17:13;14.30;99.90
16781;DHT22;8507;50.056;8.248;2023-08-31T03:19:39;14.40;99.90
16781;DHT22;8507;50.056;8.248;2023-08-31T03:22:04;14.40;99.90
16781;DHT22;8507;50.056;8.248;2023-08-31T03:24:32;14.40;99.90
16781;DHT22;8507;50.056;8.248;2023-08-31T03:26:58;14.40;99.90
16781;DHT22;8507;50.056;8.248;2023-08-31T03:29:23;14.40;99.90
16781;DHT22;8507;50.056;8.248;2023-08-31T03:31:49;14.30;99.90
16781;DHT22;8507;50.056;8.248;2023-08-31T03:34:15;14.30;99.90
16781;DHT22;8507;50.056;8.248;2023-08-31T03:36:40;14.30;99.90
16781;DHT22;8507;50.056;8.248;2023-08-31T03:39:06;14.30;99.90
16781;DHT22;8507;50.056;8.248;2023-08-31T03:41:32;14.20;99.90
16781;DHT22;8507;50.056;8.248;2023-08-31T03:43:57;14.20;99.90
16781;DHT22;8507;50.056;8.248;2023-08-31T03:46:23;14.10;99.90
16781;DHT22;8507;50.056;8.248;2023-08-31T03:48:49;14.10;99.90
16781;DHT22;8507;50.056;8.248;2023-08-31T03:51:15;14.00;99.90
16781;DHT22;8507;50.056;8.248;2023-08-31T03:53:40;14.00;99.90
16781;DHT22;8507;50.056;8.248;2023-08-31T03:56:06;13.90;99.90
16781;DHT22;8507;50.056;8.248;2023-08-31T03:58:31;13.90;99.90
16781;DHT22;8507;50.056;8.248;2023-08-31T04:00:57;13.90;99.90
16781;DHT22;8507;50.056;8.248;2023-08-31T04:03:23;13.80;99.90
16781;DHT22;8507;50.056;8.248;2023-08-31T04:05:53;13.70;99.90
16781;DHT22;8507;50.056;8.248;2023-08-31T04:08:19;13.70;99.90
16781;DHT22;8507;50.056;8.248;2023-08-31T04:10:44;13.60;99.90
16781;DHT22;8507;50.056;8.248;2023-08-31T04:13:10;13.50;99.90
16781;DHT22;8507;50.056;8.248;2023-08-31T04:15:36;13.40;99.90
16781;DHT22;8507;50.056;8.248;2023-08-31T04:18:01;13.30;99.90
16781;DHT22;8507;50.056;8.248;2023-08-31T04:20:27;13.30;99.90
16781;DHT22;8507;50.056;8.248;2023-08-31T04:22:53;13.30;99.90
16781;DHT22;8507;50.056;8.248;2023-08-31T04:25:18;13.20;99.90
16781;DHT22;8507;50.056;8.248;2023-08-31T04:27:44;13.20;99.90
16781;DHT22;8507;50.056;8.248;2023-08-31T04:30:11;13.20;99.90
16781;DHT22;8507;50.056;8.248;2023-08-31T04:32:37;13.10;99.90
16781;DHT22;8507;50.056;8.248;2023-08-31T04:35:04;13.10;99.90
16781;DHT22;8507;50.056;8.248;2023-08-31T04:37:31;13.10;99.90
16781;DHT22;8507;50.056;8.248;2023-08-31T04:39:57;13.00;99.90
16781;DHT22;8507;50.056;8.248;2023-08-31T04:42:23;13.00;99.90
16781;DHT22;8507;50.056;8.248;2023-08-31T04:44:49;13.00;99.90
16781;DHT22;8507;50.056;8.248;2023-08-31T04:47:15;12.90;99.90
16781;DHT22;8507;50.056;8.248;2023-08-31T04:49:40;12.90;99.90
16781;DHT22;8507;50.056;8.248;2023-08-31T04:52:06;13.00;99.90
16781;DHT22;8507;50.056;8.248;2023-08-31T04:54:31;13.00;99.90
16781;DHT22;8507;50.056;8.248;2023-08-31T04:56:57;13.10;99.90
16781;DHT22;8507;50.056;8.248;2023-08-31T04:59:22;13.10;99.90
16781;DHT22;8507;50.056;8.248;2023-08-31T05:01:48;13.20;99.90
16781;DHT22;8507;50.056;8.248;2023-08-31T05:04:13;13.20;99.90
16781;DHT22;8507;50.056;8.248;2023-08-31T05:06:39;13.20;99.90
16781;DHT22;8507;50.056;8.248;2023-08-31T05:09:04;13.30;99.90
16781;DHT22;8507;50.056;8.248;2023-08-31T05:11:31;13.30;99.90
16781;DHT22;8507;50.056;8.248;2023-08-31T05:13:56;13.40;99.90
16781;DHT22;8507;50.056;8.248;2023-08-31T05:16:22;13.40;99.90
16781;DHT22;8507;50.056;8.248;2023-08-31T05:18:49;13.40;99.90
16781;DHT22;8507;50.056;8.248;2023-08-31T05:21:15;13.50;99.90
16781;DHT22;8507;50.056;8.248;2023-08-31T05:23:40;13.50;99.90
16781;DHT22;8507;50.056;8.248;2023-08-31T05:26:06;13.70;99.90
16781;DHT22;8507;50.056;8.248;2023-08-31T05:28:31;13.60;99.90
16781;DHT22;8507;50.056;8.248;2023-08-31T05:30:59;13.70;99.90
16781;DHT22;8507;50.056;8.248;2023-08-31T05:33:24;13.80;99.90
16781;DHT22;8507;50.056;8.248;2023-08-31T05:35:54;13.90;99.90
16781;DHT22;8507;50.056;8.248;2023-08-31T05:38:20;14.00;99.90
16781;DHT22;8507;50.056;8.248;2023-08-31T05:40:46;14.00;99.90
16781;DHT22;8507;50.056;8.248;2023-08-31T05:43:15;14.10;99.90
16781;DHT22;8507;50.056;8.248;2023-08-31T05:45:41;14.20;99.90
16781;DHT22;8507;50.056;8.248;2023-08-31T05:48:07;14.40;99.90
16781;DHT22;8507;50.056;8.248;2023-08-31T05:50:33;14.50;99.90
16781;DHT22;8507;50.056;8.248;2023-08-31T05:52:59;14.50;99.90
16781;DHT22;8507;50.056;8.248;2023-08-31T05:55:24;14.60;99.90
16781;DHT22;8507;50.056;8.248;2023-08-31T05:57:50;14.60;99.90
16781;DHT22;8507;50.056;8.248;2023-08-31T06:00:16;14.60;99.90
16781;DHT22;8507;50.056;8.248;2023-08-31T06:02:43;14.60;99.90
16781;DHT22;8507;50.056;8.248;2023-08-31T06:05:10;14.70;99.90
16781;DHT22;8507;50.056;8.248;2023-08-31T06:07:38;14.70;99.90
16781;DHT22;8507;50.056;8.248;2023-08-31T06:10:04;14.70;99.90
16781;DHT22;8507;50.056;8.248;2023-08-31T06:12:31;14.70;99.90
16781;DHT22;8507;50.056;8.248;2023-08-31T06:14:57;14.70;99.90
16781;DHT22;8507;50.056;8.248;2023-08-31T06:17:23;14.70;99.90
16781;DHT22;8507;50.056;8.248;2023-08-31T06:19:49;14.70;99.90
16781;DHT22;8507;50.056;8.248;2023-08-31T06:22:14;14.70;99.90
16781;DHT22;8507;50.056;8.248;2023-08-31T06:24:40;14.60;99.90
16781;DHT22;8507;50.056;8.248;2023-08-31T06:27:05;14.60;99.90
16781;DHT22;8507;50.056;8.248;2023-08-31T06:29:31;14.60;99.90
16781;DHT22;8507;50.056;8.248;2023-08-31T06:31:56;14.60;99.90
16781;DHT22;8507;50.056;8.248;2023-08-31T06:34:22;14.70;99.90
16781;DHT22;8507;50.056;8.248;2023-08-31T06:36:47;14.90;99.90
16781;DHT22;8507;50.056;8.248;2023-08-31T06:39:13;15.10;99.90
16781;DHT22;8507;50.056;8.248;2023-08-31T06:41:39;15.40;99.90
16781;DHT22;8507;50.056;8.248;2023-08-31T06:44:04;15.50;99.90
16781;DHT22;8507;50.056;8.248;2023-08-31T06:46:30;15.60;99.90
16781;DHT22;8507;50.056;8.248;2023-08-31T06:49:00;15.70;99.90
16781;DHT22;8507;50.056;8.248;2023-08-31T06:51:25;15.70;99.90
16781;DHT22;8507;50.056;8.248;2023-08-31T06:53:51;16.00;99.90
16781;DHT22;8507;50.056;8.248;2023-08-31T06:56:16;16.20;99.90
16781;DHT22;8507;50.056;8.248;2023-08-31T06:58:42;16.30;99.90
16781;DHT22;8507;50.056;8.248;2023-08-31T07:01:08;16.40;99.90
16781;DHT22;8507;50.056;8.248;2023-08-31T07:03:34;16.50;99.90
16781;DHT22;8507;50.056;8.248;2023-08-31T07:06:00;16.60;99.90
16781;DHT22;8507;50.056;8.248;2023-08-31T07:08:25;16.50;99.90
16781;DHT22;8507;50.056;8.248;2023-08-31T07:10:51;16.30;99.90
16781;DHT22;8507;50.056;8.248;2023-08-31T07:13:17;16.20;99.90
16781;DHT22;8507;50.056;8.248;2023-08-31T07:15:42;15.80;99.90
16781;DHT22;8507;50.056;8.248;2023-08-31T07:18:08;15.80;99.90
16781;DHT22;8507;50.056;8.248;2023-08-31T07:20:34;15.90;99.90
16781;DHT22;8507;50.056;8.248;2023-08-31T07:22:59;16.00;99.90
16781;DHT22;8507;50.056;8.248;2023-08-31T07:25:25;16.10;99.90
16781;DHT22;8507;50.056;8.248;2023-08-31T07:27:50;16.20;99.90
16781;DHT22;8507;50.056;8.248;2023-08-31T07:30:16;16.20;99.90
16781;DHT22;8507;50.056;8.248;2023-08-31T07:32:42;16.30;99.90
16781;DHT22;8507;50.056;8.248;2023-08-31T07:35:08;16.40;99.90
16781;DHT22;8507;50.056;8.248;2023-08-31T07:37:33;16.40;99.90
16781;DHT22;8507;50.056;8.248;2023-08-31T07:39:59;16.60;99.90
16781;DHT22;8507;50.056;8.248;2023-08-31T07:42:25;16.70;99.90
16781;DHT22;8507;50.056;8.248;2023-08-31T07:44:50;16.80;99.90
16781;DHT22;8507;50.056;8.248;2023-08-31T07:47:16;17.10;99.90
16781;DHT22;8507;50.056;8.248;2023-08-31T07:49:41;17.40;99.90
16781;DHT22;8507;50.056;8.248;2023-08-31T07:52:07;17.50;99.90
16781;DHT22;8507;50.056;8.248;2023-08-31T07:54:33;17.40;99.90
16781;DHT22;8507;50.056;8.248;2023-08-31T07:56:58;17.50;99.90
16781;DHT22;8507;50.056;8.248;2023-08-31T07:59:24;17.60;99.90
16781;DHT22;8507;50.056;8.248;2023-08-31T08:01:50;17.60;99.90
16781;DHT22;8507;50.056;8.248;2023-08-31T08:04:15;17.60;99.90
16781;DHT22;8507;50.056;8.248;2023-08-31T08:06:44;17.70;99.90
16781;DHT22;8507;50.056;8.248;2023-08-31T08:09:09;17.80;99.90
16781;DHT22;8507;50.056;8.248;2023-08-31T08:11:35;17.70;99.90
16781;DHT22;8507;50.056;8.248;2023-08-31T08:14:01;17.70;99.90
16781;DHT22;8507;50.056;8.248;2023-08-31T08:16:26;17.70;99.90
16781;DHT22;8507;50.056;8.248;2023-08-31T08:18:52;17.80;99.90
16781;DHT22;8507;50.056;8.248;2023-08-31T08:21:17;18.00;99.90
16781;DHT22;8507;50.056;8.248;2023-08-31T08:23:43;18.20;99.90
16781;DHT22;8507;50.056;8.248;2023-08-31T08:26:08;18.60;99.90
16781;DHT22;8507;50.056;8.248;2023-08-31T08:28:34;19.10;99.90
16781;DHT22;8507;50.056;8.248;2023-08-31T08:31:03;19.40;99.90
16781;DHT22;8507;50.056;8.248;2023-08-31T08:33:30;19.30;99.90
16781;DHT22;8507;50.056;8.248;2023-08-31T08:35:58;19.20;99.90
16781;DHT22;8507;50.056;8.248;2023-08-31T08:38:25;18.90;99.90
16781;DHT22;8507;50.056;8.248;2023-08-31T08:40:51;19.00;99.90
16781;DHT22;8507;50.056;8.248;2023-08-31T08:43:23;18.80;99.90
16781;DHT22;8507;50.056;8.248;2023-08-31T08:45:51;18.80;99.90
16781;DHT22;8507;50.056;8.248;2023-08-31T08:48:18;18.70;99.90
16781;DHT22;8507;50.056;8.248;2023-08-31T08:50:44;18.70;99.90
16781;DHT22;8507;50.056;8.248;2023-08-31T08:53:10;18.70;99.90
16781;DHT22;8507;50.056;8.248;2023-08-31T08:55:36;18.80;99.90
16781;DHT22;8507;50.056;8.248;2023-08-31T08:58:03;18.90;99.90
16781;DHT22;8507;50.056;8.248;2023-08-31T09:00:31;19.00;99.90
16781;DHT22;8507;50.056;8.248;2023-08-31T09:02:58;19.00;99.90
16781;DHT22;8507;50.056;8.248;2023-08-31T09:05:24;19.20;99.90
16781;DHT22;8507;50.056;8.248;2023-08-31T09:08:08;19.30;99.90
16781;DHT22;8507;50.056;8.248;2023-08-31T09:10:40;19.50;99.90
16781;DHT22;8507;50.056;8.248;2023-08-31T09:13:11;19.70;99.90
16781;DHT22;8507;50.056;8.248;2023-08-31T09:15:45;20.30;99.90
16781;DHT22;8507;50.056;8.248;2023-08-31T09:18:25;20.50;99.90
16781;DHT22;8507;50.056;8.248;2023-08-31T09:20:52;20.50;99.90
16781;DHT22;8507;50.056;8.248;2023-08-31T09:23:18;20.80;99.90
16781;DHT22;8507;50.056;8.248;2023-08-31T09:25:49;20.70;99.90
16781;DHT22;8507;50.056;8.248;2023-08-31T09:28:20;21.00;99.90
16781;DHT22;8507;50.056;8.248;2023-08-31T09:30:47;21.00;99.90
16781;DHT22;8507;50.056;8.248;2023-08-31T09:33:15;20.90;99.90
16781;DHT22;8507;50.056;8.248;2023-08-31T09:35:50;20.70;99.90
16781;DHT22;8507;50.056;8.248;2023-08-31T09:38:17;20.90;99.90
16781;DHT22;8507;50.056;8.248;2023-08-31T09:40:43;21.00;99.90
16781;DHT22;8507;50.056;8.248;2023-08-31T09:43:08;20.90;99.90
16781;DHT22;8507;50.056;8.248;2023-08-31T09:45:34;21.30;99.90
16781;DHT22;8507;50.056;8.248;2023-08-31T09:48:02;21.50;99.90
16781;DHT22;8507;50.056;8.248;2023-08-31T09:50:32;21.80;99.90
16781;DHT22;8507;50.056;8.248;2023-08-31T09:53:05;21.50;99.90
16781;DHT22;8507;50.056;8.248;2023-08-31T09:55:35;21.40;99.90
16781;DHT22;8507;50.056;8.248;2023-08-31T09:58:02;21.50;99.90
16781;DHT22;8507;50.056;8.248;2023-08-31T10:00:30;21.10;99.90
16781;DHT22;8507;50.056;8.248;2023-08-31T10:03:00;20.90;99.90
16781;DHT22;8507;50.056;8.248;2023-08-31T10:05:27;20.80;99.90
16781;DHT22;8507;50.056;8.248;2023-08-31T10:07:52;20.60;99.90
16781;DHT22;8507;50.056;8.248;2023-08-31T10:10:18;20.40;99.90
16781;DHT22;8507;50.056;8.248;2023-08-31T10:12:48;20.50;99.90
16781;DHT22;8507;50.056;8.248;2023-08-31T10:15:14;20.40;99.90
16781;DHT22;8507;50.056;8.248;2023-08-31T10:17:40;20.50;99.90
16781;DHT22;8507;50.056;8.248;2023-08-31T10:20:11;21.10;99.90
16781;DHT22;8507;50.056;8.248;2023-08-31T10:22:37;21.70;99.90
16781;DHT22;8507;50.056;8.248;2023-08-31T10:25:05;22.50;99.90
16781;DHT22;8507;50.056;8.248;2023-08-31T10:27:43;22.80;99.90
16781;DHT22;8507;50.056;8.248;2023-08-31T10:35:56;21.90;99.90
16781;DHT22;8507;50.056;8.248;2023-08-31T10:38:28;22.40;99.90
16781;DHT22;8507;50.056;8.248;2023-08-31T10:43:44;22.30;99.90
16781;DHT22;8507;50.056;8.248;2023-08-31T10:51:41;21.50;99.90
16781;DHT22;8507;50.056;8.248;2023-08-31T10:54:26;21.80;99.90
16781;DHT22;8507;50.056;8.248;2023-08-31T10:57:02;21.90;99.90
16781;DHT22;8507;50.056;8.248;2023-08-31T10:59:46;21.90;99.90
16781;DHT22;8507;50.056;8.248;2023-08-31T11:07:24;21.40;99.90
16781;DHT22;8507;50.056;8.248;2023-08-31T11:09:50;21.70;99.90
16781;DHT22;8507;50.056;8.248;2023-08-31T11:12:15;22.10;99.90
16781;DHT22;8507;50.056;8.248;2023-08-31T11:14:41;22.40;99.90
16781;DHT22;8507;50.056;8.248;2023-08-31T11:17:07;21.90;99.90
16781;DHT22;8507;50.056;8.248;2023-08-31T11:19:34;22.00;99.90
16781;DHT22;8507;50.056;8.248;2023-08-31T11:22:01;21.80;99.90
16781;DHT22;8507;50.056;8.248;2023-08-31T11:24:33;21.70;99.90
16781;DHT22;8507;50.056;8.248;2023-08-31T11:26:59;21.70;99.90
16781;DHT22;8507;50.056;8.248;2023-08-31T11:29:24;22.00;99.90
16781;DHT22;8507;50.056;8.248;2023-08-31T11:31:50;22.40;99.90
16781;DHT22;8507;50.056;8.248;2023-08-31T11:34:17;22.10;99.90
16781;DHT22;8507;50.056;8.248;2023-08-31T11:36:44;22.00;99.90
16781;DHT22;8507;50.056;8.248;2023-08-31T11:39:11;21.90;99.90
16781;DHT22;8507;50.056;8.248;2023-08-31T11:41:37;21.70;99.90
16781;DHT22;8507;50.056;8.248;2023-08-31T11:44:08;22.00;99.90
16781;DHT22;8507;50.056;8.248;2023-08-31T11:46:38;22.40;99.90
16781;DHT22;8507;50.056;8.248;2023-08-31T11:49:04;22.50;99.90
16781;DHT22;8507;50.056;8.248;2023-08-31T11:51:32;22.20;99.90
16781;DHT22;8507;50.056;8.248;2023-08-31T11:53:57;22.40;99.90
16781;DHT22;8507;50.056;8.248;2023-08-31T11:56:24;22.30;99.90
16781;DHT22;8507;50.056;8.248;2023-08-31T11:58:51;22.00;99.90
16781;DHT22;8507;50.056;8.248;2023-08-31T12:01:21;21.70;99.90
16781;DHT22;8507;50.056;8.248;2023-08-31T12:03:47;21.60;99.90
16781;DHT22;8507;50.056;8.248;2023-08-31T12:06:16;21.60;99.90
16781;DHT22;8507;50.056;8.248;2023-08-31T12:08:43;21.70;99.90
16781;DHT22;8507;50.056;8.248;2023-08-31T12:11:09;22.20;99.90
16781;DHT22;8507;50.056;8.248;2023-08-31T12:13:35;22.20;99.90
16781;DHT22;8507;50.056;8.248;2023-08-31T12:16:00;22.30;99.90
16781;DHT22;8507;50.056;8.248;2023-08-31T12:18:30;22.90;99.90
16781;DHT22;8507;50.056;8.248;2023-08-31T12:20:57;22.80;99.90
16781;DHT22;8507;50.056;8.248;2023-08-31T12:23:23;22.40;99.90
16781;DHT22;8507;50.056;8.248;2023-08-31T12:25:49;22.20;99.90
16781;DHT22;8507;50.056;8.248;2023-08-31T12:28:17;22.00;99.90
16781;DHT22;8507;50.056;8.248;2023-08-31T12:30:49;22.20;99.90
16781;DHT22;8507;50.056;8.248;2023-08-31T12:33:15;22.20;99.90
16781;DHT22;8507;50.056;8.248;2023-08-31T12:35:41;22.30;99.90
16781;DHT22;8507;50.056;8.248;2023-08-31T12:38:06;22.00;99.90
16781;DHT22;8507;50.056;8.248;2023-08-31T12:40:32;21.90;99.90
16781;DHT22;8507;50.056;8.248;2023-08-31T12:42:58;22.00;99.90
16781;DHT22;8507;50.056;8.248;2023-08-31T12:45:23;22.00;99.90
16781;DHT22;8507;50.056;8.248;2023-08-31T12:47:49;22.00;99.90
16781;DHT22;8507;50.056;8.248;2023-08-31T12:50:14;22.10;99.90
16781;DHT22;8507;50.056;8.248;2023-08-31T12:52:40;22.30;99.90
16781;DHT22;8507;50.056;8.248;2023-08-31T12:55:10;22.40;99.90
16781;DHT22;8507;50.056;8.248;2023-08-31T12:57:36;22.40;99.90
16781;DHT22;8507;50.056;8.248;2023-08-31T13:00:02;22.60;99.90
16781;DHT22;8507;50.056;8.248;2023-08-31T13:02:30;22.60;99.90
16781;DHT22;8507;50.056;8.248;2023-08-31T13:04:55;23.00;99.90
16781;DHT22;8507;50.056;8.248;2023-08-31T13:07:21;23.20;99.90
16781;DHT22;8507;50.056;8.248;2023-08-31T13:09:46;23.20;99.90
16781;DHT22;8507;50.056;8.248;2023-08-31T13:12:12;23.20;99.90
16781;DHT22;8507;50.056;8.248;2023-08-31T13:14:37;23.00;99.90
16781;DHT22;8507;50.056;8.248;2023-08-31T13:17:04;23.00;99.90
16781;DHT22;8507;50.056;8.248;2023-08-31T13:19:30;23.20;99.90
16781;DHT22;8507;50.056;8.248;2023-08-31T13:21:56;23.20;99.90
16781;DHT22;8507;50.056;8.248;2023-08-31T13:24:21;23.40;99.90
16781;DHT22;8507;50.056;8.248;2023-08-31T13:26:47;23.10;99.90
16781;DHT22;8507;50.056;8.248;2023-08-31T13:29:14;23.40;99.90
16781;DHT22;8507;50.056;8.248;2023-08-31T13:31:39;23.50;99.90
16781;DHT22;8507;50.056;8.248;2023-08-31T13:34:05;23.30;99.90
16781;DHT22;8507;50.056;8.248;2023-08-31T13:36:33;23.40;99.90
16781;DHT22;8507;50.056;8.248;2023-08-31T13:38:59;23.10;99.90
16781;DHT22;8507;50.056;8.248;2023-08-31T13:41:24;22.90;99.90
16781;DHT22;8507;50.056;8.248;2023-08-31T13:43:50;22.80;99.90
16781;DHT22;8507;50.056;8.248;2023-08-31T13:46:15;22.80;99.90
16781;DHT22;8507;50.056;8.248;2023-08-31T13:48:41;22.50;99.90
16781;DHT22;8507;50.056;8.248;2023-08-31T13:51:07;22.60;99.90
16781;DHT22;8507;50.056;8.248;2023-08-31T13:53:32;22.60;99.90
16781;DHT22;8507;50.056;8.248;2023-08-31T13:55:58;22.80;99.90
16781;DHT22;8507;50.056;8.248;2023-08-31T13:58:23;23.00;99.90
16781;DHT22;8507;50.056;8.248;2023-08-31T14:00:49;22.90;99.90
16781;DHT22;8507;50.056;8.248;2023-08-31T14:03:14;22.90;99.90
16781;DHT22;8507;50.056;8.248;2023-08-31T14:05:40;22.60;99.90
16781;DHT22;8507;50.056;8.248;2023-08-31T14:08:05;22.70;99.90
16781;DHT22;8507;50.056;8.248;2023-08-31T14:10:31;22.60;99.90
16781;DHT22;8507;50.056;8.248;2023-08-31T14:12:58;22.30;99.90
16781;DHT22;8507;50.056;8.248;2023-08-31T14:15:24;22.10;99.90
16781;DHT22;8507;50.056;8.248;2023-08-31T14:17:52;22.00;99.90
16781;DHT22;8507;50.056;8.248;2023-08-31T14:20:18;21.90;99.90
16781;DHT22;8507;50.056;8.248;2023-08-31T14:22:44;21.70;99.90
16781;DHT22;8507;50.056;8.248;2023-08-31T14:25:11;21.40;99.90
16781;DHT22;8507;50.056;8.248;2023-08-31T14:27:37;21.40;99.90
16781;DHT22;8507;50.056;8.248;2023-08-31T14:30:04;21.30;99.90
16781;DHT22;8507;50.056;8.248;2023-08-31T14:32:30;21.30;99.90
16781;DHT22;8507;50.056;8.248;2023-08-31T14:34:55;21.30;99.90
16781;DHT22;8507;50.056;8.248;2023-08-31T14:37:21;21.40;99.90
16781;DHT22;8507;50.056;8.248;2023-08-31T14:39:47;21.50;99.90
16781;DHT22;8507;50.056;8.248;2023-08-31T14:42:12;21.40;99.90
16781;DHT22;8507;50.056;8.248;2023-08-31T14:44:38;21.40;99.90
16781;DHT22;8507;50.056;8.248;2023-08-31T14:47:03;21.20;99.90
16781;DHT22;8507;50.056;8.248;2023-08-31T14:49:29;21.30;99.90
16781;DHT22;8507;50.056;8.248;2023-08-31T14:51:54;21.40;99.90
16781;DHT22;8507;50.056;8.248;2023-08-31T14:54:20;21.50;99.90
16781;DHT22;8507;50.056;8.248;2023-08-31T14:56:46;21.60;99.90
16781;DHT22;8507;50.056;8.248;2023-08-31T14:59:11;21.60;99.90
16781;DHT22;8507;50.056;8.248;2023-08-31T15:01:37;21.70;99.90
16781;DHT22;8507;50.056;8.248;2023-08-31T15:04:04;21.90;99.90
16781;DHT22;8507;50.056;8.248;2023-08-31T15:06:30;22.00;99.90
16781;DHT22;8507;50.056;8.248;2023-08-31T15:08:58;22.10;99.90
16781;DHT22;8507;50.056;8.248;2023-08-31T15:11:26;22.00;99.90
16781;DHT22;8507;50.056;8.248;2023-08-31T15:13:52;21.90;99.90
16781;DHT22;8507;50.056;8.248;2023-08-31T15:16:17;22.00;99.90
16781;DHT22;8507;50.056;8.248;2023-08-31T15:18:43;22.10;99.90
16781;DHT22;8507;50.056;8.248;2023-08-31T15:21:10;22.00;99.90
16781;DHT22;8507;50.056;8.248;2023-08-31T15:23:35;21.90;99.90
16781;DHT22;8507;50.056;8.248;2023-08-31T15:26:02;21.80;99.90
16781;DHT22;8507;50.056;8.248;2023-08-31T15:28:31;21.70;99.90
16781;DHT22;8507;50.056;8.248;2023-08-31T15:30:56;21.70;99.90
16781;DHT22;8507;50.056;8.248;2023-08-31T15:33:22;21.50;99.90
16781;DHT22;8507;50.056;8.248;2023-08-31T15:35:47;21.50;99.90
16781;DHT22;8507;50.056;8.248;2023-08-31T15:38:13;21.50;99.90
16781;DHT22;8507;50.056;8.248;2023-08-31T15:40:38;21.30;99.90
16781;DHT22;8507;50.056;8.248;2023-08-31T15:43:04;21.10;99.90
16781;DHT22;8507;50.056;8.248;2023-08-31T15:45:29;21.00;99.90
16781;DHT22;8507;50.056;8.248;2023-08-31T15:47:55;20.90;99.90
16781;DHT22;8507;50.056;8.248;2023-08-31T15:50:21;20.90;99.90
16781;DHT22;8507;50.056;8.248;2023-08-31T15:52:46;20.90;99.90
16781;DHT22;8507;50.056;8.248;2023-08-31T15:55:12;20.90;99.90
16781;DHT22;8507;50.056;8.248;2023-08-31T15:57:37;20.90;99.90
16781;DHT22;8507;50.056;8.248;2023-08-31T16:00:04;20.80;99.90
16781;DHT22;8507;50.056;8.248;2023-08-31T16:02:36;20.70;99.90
16781;DHT22;8507;50.056;8.248;2023-08-31T16:05:06;20.80;99.90